sensor_id;sensor_type;location;lat;lon;timestamp;pressure;altitude;pressure_sealevel;temperature;humidity
67377;BME280;54261;46.086;6.588;2023-03-16T00:03:46;92550.16;;;3.47;36.43
67377;BME280;54261;46.086;6.588;2023-03-16T00:08:48;92538.13;;;3.65;36.24
67377;BME280;54261;46.086;6.588;2023-03-16T00:13:50;92539.91;;;3.85;35.72
67377;BME280;54261;46.086;6.588;2023-03-16T00:18:52;92551.38;;;3.70;35.25
67377;BME280;54261;46.086;6.588;2023-03-16T00:23:55;92555.28;;;3.83;35.45
67377;BME280;54261;46.086;6.588;2023-03-16T00:28:56;92558.38;;;3.45;35.67
67377;BME280;54261;46.086;6.588;2023-03-16T00:33:58;92534.81;;;3.33;36.46
67377;BME280;54261;46.086;6.588;2023-03-16T00:39:00;92559.47;;;3.34;37.54
67377;BME280;54261;46.086;6.588;2023-03-16T00:44:04;92554.47;;;3.17;36.46
67377;BME280;54261;46.086;6.588;2023-03-16T00:49:06;92561.31;;;3.43;36.53
67377;BME280;54261;46.086;6.588;2023-03-16T00:54:07;92565.97;;;3.73;35.91
67377;BME280;54261;46.086;6.588;2023-03-16T00:59:09;92547.41;;;3.73;35.94
67377;BME280;54261;46.086;6.588;2023-03-16T01:04:13;92557.69;;;2.93;36.90
67377;BME280;54261;46.086;6.588;2023-03-16T01:09:15;92530.25;;;3.44;36.86
67377;BME280;54261;46.086;6.588;2023-03-16T01:14:18;92548.47;;;1.49;39.66
67377;BME280;54261;46.086;6.588;2023-03-16T01:19:20;92542.28;;;3.10;38.17
67377;BME280;54261;46.086;6.588;2023-03-16T01:24:23;92544.56;;;3.48;36.83
67377;BME280;54261;46.086;6.588;2023-03-16T01:29:25;92531.38;;;3.27;37.19
67377;BME280;54261;46.086;6.588;2023-03-16T01:34:30;92537.63;;;3.57;36.58
67377;BME280;54261;46.086;6.588;2023-03-16T01:39:33;92533.66;;;3.55;36.70
67377;BME280;54261;46.086;6.588;2023-03-16T01:44:56;92530.44;;;3.63;36.88
67377;BME280;54261;46.086;6.588;2023-03-16T01:50:04;92509.69;;;3.10;37.56
67377;BME280;54261;46.086;6.588;2023-03-16T01:55:11;92502.97;;;3.33;37.10
67377;BME280;54261;46.086;6.588;2023-03-16T02:00:18;92508.94;;;2.83;37.66
67377;BME280;54261;46.086;6.588;2023-03-16T02:05:57;92494.78;;;3.19;37.40
67377;BME280;54261;46.086;6.588;2023-03-16T02:11:02;92495.72;;;3.54;36.10
67377;BME280;54261;46.086;6.588;2023-03-16T02:16:25;92485.72;;;3.31;36.62
67377;BME280;54261;46.086;6.588;2023-03-16T02:21:34;92475.25;;;2.79;36.98
67377;BME280;54261;46.086;6.588;2023-03-16T02:26:54;92473.88;;;3.07;36.52
67377;BME280;54261;46.086;6.588;2023-03-16T02:32:01;92454.22;;;3.13;36.28
67377;BME280;54261;46.086;6.588;2023-03-16T02:37:04;92454.88;;;3.45;36.10
67377;BME280;54261;46.086;6.588;2023-03-16T02:42:11;92456.31;;;3.22;35.49
67377;BME280;54261;46.086;6.588;2023-03-16T02:47:23;92469.91;;;3.10;36.88
67377;BME280;54261;46.086;6.588;2023-03-16T02:52:27;92449.63;;;2.43;37.56
67377;BME280;54261;46.086;6.588;2023-03-16T02:57:29;92471.09;;;3.43;36.17
67377;BME280;54261;46.086;6.588;2023-03-16T03:02:37;92463.97;;;3.28;35.78
67377;BME280;54261;46.086;6.588;2023-03-16T03:07:38;92463.94;;;2.52;36.45
67377;BME280;54261;46.086;6.588;2023-03-16T03:12:41;92464.16;;;2.40;36.60
67377;BME280;54261;46.086;6.588;2023-03-16T03:17:44;92452.50;;;2.62;36.70
67377;BME280;54261;46.086;6.588;2023-03-16T03:22:48;92455.13;;;2.67;36.35
67377;BME280;54261;46.086;6.588;2023-03-16T03:27:51;92442.66;;;2.83;36.25
67377;BME280;54261;46.086;6.588;2023-03-16T03:32:56;92471.00;;;2.93;36.61
67377;BME280;54261;46.086;6.588;2023-03-16T03:37:57;92476.06;;;2.84;35.90
67377;BME280;54261;46.086;6.588;2023-03-16T03:43:00;92492.53;;;1.14;38.70
67377;BME280;54261;46.086;6.588;2023-03-16T03:48:04;92464.66;;;1.65;38.78
67377;BME280;54261;46.086;6.588;2023-03-16T03:53:07;92484.00;;;1.70;38.42
67377;BME280;54261;46.086;6.588;2023-03-16T03:58:21;92489.53;;;1.64;37.52
67377;BME280;54261;46.086;6.588;2023-03-16T04:03:23;92500.16;;;1.74;38.79
67377;BME280;54261;46.086;6.588;2023-03-16T04:08:25;92468.16;;;2.22;38.16
67377;BME280;54261;46.086;6.588;2023-03-16T04:13:27;92486.97;;;2.52;37.47
67377;BME280;54261;46.086;6.588;2023-03-16T04:18:30;92496.75;;;2.67;36.75
67377;BME280;54261;46.086;6.588;2023-03-16T04:23:40;92493.03;;;2.73;36.87
67377;BME280;54261;46.086;6.588;2023-03-16T04:28:43;92489.28;;;2.95;36.79
67377;BME280;54261;46.086;6.588;2023-03-16T04:33:48;92474.97;;;2.85;37.00
67377;BME280;54261;46.086;6.588;2023-03-16T04:38:51;92493.03;;;2.83;36.46
67377;BME280;54261;46.086;6.588;2023-03-16T04:43:53;92490.38;;;2.73;36.90
67377;BME280;54261;46.086;6.588;2023-03-16T04:48:57;92477.31;;;3.08;36.52
67377;BME280;54261;46.086;6.588;2023-03-16T04:54:02;92489.78;;;3.02;36.51
67377;BME280;54261;46.086;6.588;2023-03-16T04:59:08;92506.53;;;2.82;35.93
67377;BME280;54261;46.086;6.588;2023-03-16T05:04:20;92502.03;;;2.15;38.00
67377;BME280;54261;46.086;6.588;2023-03-16T05:09:22;92493.88;;;2.48;37.28
67377;BME280;54261;46.086;6.588;2023-03-16T05:14:24;92496.25;;;1.18;39.16
67377;BME280;54261;46.086;6.588;2023-03-16T05:19:39;92470.53;;;1.93;38.65
67377;BME280;54261;46.086;6.588;2023-03-16T05:24:41;92401.81;;;1.03;39.29
67377;BME280;54261;46.086;6.588;2023-03-16T05:29:43;92486.69;;;2.58;37.70
67377;BME280;54261;46.086;6.588;2023-03-16T05:34:47;92468.97;;;2.49;37.60
67377;BME280;54261;46.086;6.588;2023-03-16T05:39:49;92475.03;;;2.28;37.17
67377;BME280;54261;46.086;6.588;2023-03-16T05:44:52;92480.59;;;2.53;38.28
67377;BME280;54261;46.086;6.588;2023-03-16T05:50:03;92492.97;;;2.99;37.84
67377;BME280;54261;46.086;6.588;2023-03-16T05:55:11;92487.09;;;3.12;37.27
67377;BME280;54261;46.086;6.588;2023-03-16T06:00:16;92476.47;;;3.23;36.51
67377;BME280;54261;46.086;6.588;2023-03-16T06:05:28;92450.28;;;3.00;36.66
67377;BME280;54261;46.086;6.588;2023-03-16T06:10:31;92452.88;;;3.16;37.15
67377;BME280;54261;46.086;6.588;2023-03-16T06:15:33;92446.94;;;2.69;36.66
67377;BME280;54261;46.086;6.588;2023-03-16T06:20:36;92435.84;;;2.15;38.82
67377;BME280;54261;46.086;6.588;2023-03-16T06:25:39;92440.59;;;2.59;38.80
67377;BME280;54261;46.086;6.588;2023-03-16T06:30:43;92455.13;;;2.67;37.83
67377;BME280;54261;46.086;6.588;2023-03-16T06:35:45;92469.66;;;1.61;38.92
67377;BME280;54261;46.086;6.588;2023-03-16T06:41:01;92492.81;;;2.49;36.72
67377;BME280;54261;46.086;6.588;2023-03-16T06:46:05;92492.53;;;2.35;37.36
67377;BME280;54261;46.086;6.588;2023-03-16T06:51:07;92480.09;;;2.46;38.20
67377;BME280;54261;46.086;6.588;2023-03-16T06:56:10;92452.66;;;3.02;37.99
67377;BME280;54261;46.086;6.588;2023-03-16T07:01:15;92452.75;;;3.92;36.98
67377;BME280;54261;46.086;6.588;2023-03-16T07:06:17;92436.59;;;3.38;36.74
67377;BME280;54261;46.086;6.588;2023-03-16T07:11:19;92451.22;;;3.31;36.93
67377;BME280;54261;46.086;6.588;2023-03-16T07:16:20;92447.94;;;3.99;36.58
67377;BME280;54261;46.086;6.588;2023-03-16T07:21:23;92453.22;;;4.39;36.35
67377;BME280;54261;46.086;6.588;2023-03-16T07:26:25;92455.38;;;3.52;37.11
67377;BME280;54261;46.086;6.588;2023-03-16T07:31:32;92450.63;;;3.44;36.76
67377;BME280;54261;46.086;6.588;2023-03-16T07:36:38;92439.53;;;2.55;39.14
67377;BME280;54261;46.086;6.588;2023-03-16T07:41:40;92466.00;;;1.93;39.37
67377;BME280;54261;46.086;6.588;2023-03-16T07:46:49;92448.56;;;2.13;38.84
67377;BME280;54261;46.086;6.588;2023-03-16T07:51:53;92462.25;;;2.87;38.36
67377;BME280;54261;46.086;6.588;2023-03-16T07:57:01;92459.50;;;3.24;37.29
67377;BME280;54261;46.086;6.588;2023-03-16T08:02:17;92470.00;;;2.73;38.75
67377;BME280;54261;46.086;6.588;2023-03-16T08:07:19;92480.78;;;2.98;38.40
67377;BME280;54261;46.086;6.588;2023-03-16T08:12:47;92476.28;;;2.98;38.09
67377;BME280;54261;46.086;6.588;2023-03-16T08:17:49;92464.56;;;-1.28;48.04
67377;BME280;54261;46.086;6.588;2023-03-16T08:22:57;92473.34;;;0.05;46.83
67377;BME280;54261;46.086;6.588;2023-03-16T08:28:04;92479.13;;;3.23;42.42
67377;BME280;54261;46.086;6.588;2023-03-16T08:33:06;92467.72;;;3.78;40.79
67377;BME280;54261;46.086;6.588;2023-03-16T08:38:10;92475.66;;;3.27;41.77
67377;BME280;54261;46.086;6.588;2023-03-16T08:43:17;92477.69;;;2.23;41.65
67377;BME280;54261;46.086;6.588;2023-03-16T08:48:20;92484.13;;;-1.80;51.97
67377;BME280;54261;46.086;6.588;2023-03-16T08:53:24;92479.06;;;-2.33;53.30
67377;BME280;54261;46.086;6.588;2023-03-16T08:58:26;92470.97;;;-3.54;57.37
67377;BME280;54261;46.086;6.588;2023-03-16T09:03:28;92495.28;;;-0.94;53.21
67377;BME280;54261;46.086;6.588;2023-03-16T09:08:31;92480.19;;;3.22;43.88
67377;BME280;54261;46.086;6.588;2023-03-16T09:13:34;92483.97;;;2.95;44.76
67377;BME280;54261;46.086;6.588;2023-03-16T09:18:36;92481.75;;;-0.58;49.59
67377;BME280;54261;46.086;6.588;2023-03-16T09:23:39;92482.78;;;-0.82;50.48
67377;BME280;54261;46.086;6.588;2023-03-16T09:28:43;92473.81;;;-0.03;48.60
67377;BME280;54261;46.086;6.588;2023-03-16T09:33:45;92481.81;;;-0.48;50.84
67377;BME280;54261;46.086;6.588;2023-03-16T09:38:47;92475.03;;;3.46;46.07
67377;BME280;54261;46.086;6.588;2023-03-16T09:49:16;92462.19;;;-0.35;49.05
67377;BME280;54261;46.086;6.588;2023-03-16T09:59:51;92426.53;;;0.28;48.11
67377;BME280;54261;46.086;6.588;2023-03-16T10:10:13;92434.25;;;0.83;50.24
67377;BME280;54261;46.086;6.588;2023-03-16T10:15:27;92427.72;;;1.06;48.26
67377;BME280;54261;46.086;6.588;2023-03-16T10:20:32;92417.47;;;1.20;47.62
67377;BME280;54261;46.086;6.588;2023-03-16T10:25:42;92411.44;;;-0.15;50.10
67377;BME280;54261;46.086;6.588;2023-03-16T10:30:47;92423.22;;;0.48;48.74
67377;BME280;54261;46.086;6.588;2023-03-16T10:36:11;92423.97;;;0.43;48.99
67377;BME280;54261;46.086;6.588;2023-03-16T10:46:18;92435.94;;;1.15;46.72
67377;BME280;54261;46.086;6.588;2023-03-16T10:51:25;92438.34;;;4.68;42.57
67377;BME280;54261;46.086;6.588;2023-03-16T10:56:32;92440.47;;;1.14;46.45
67377;BME280;54261;46.086;6.588;2023-03-16T11:01:35;92446.97;;;4.25;40.40
67377;BME280;54261;46.086;6.588;2023-03-16T11:06:50;92452.00;;;6.97;37.99
67377;BME280;54261;46.086;6.588;2023-03-16T11:11:53;92456.03;;;8.38;35.33
67377;BME280;54261;46.086;6.588;2023-03-16T11:17:16;92450.69;;;5.94;35.89
67377;BME280;54261;46.086;6.588;2023-03-16T11:22:22;92442.31;;;4.41;39.99
67377;BME280;54261;46.086;6.588;2023-03-16T11:32:40;92443.78;;;3.83;40.87
67377;BME280;54261;46.086;6.588;2023-03-16T11:48:36;92458.63;;;7.13;36.32
67377;BME280;54261;46.086;6.588;2023-03-16T11:53:49;92456.69;;;3.55;40.55
67377;BME280;54261;46.086;6.588;2023-03-16T12:15:02;92453.25;;;4.93;38.10
67377;BME280;54261;46.086;6.588;2023-03-16T12:20:28;92457.81;;;5.80;36.97
67377;BME280;54261;46.086;6.588;2023-03-16T12:25:35;92452.56;;;9.14;30.62
67377;BME280;54261;46.086;6.588;2023-03-16T12:36:20;92421.28;;;6.66;31.21
67377;BME280;54261;46.086;6.588;2023-03-16T12:41:48;92421.13;;;9.29;29.58
67377;BME280;54261;46.086;6.588;2023-03-16T12:52:10;92399.00;;;4.65;35.30
67377;BME280;54261;46.086;6.588;2023-03-16T12:57:15;92402.03;;;4.82;34.51
67377;BME280;54261;46.086;6.588;2023-03-16T13:02:20;92390.44;;;7.07;34.33
67377;BME280;54261;46.086;6.588;2023-03-16T13:07:28;92377.91;;;5.41;34.12
67377;BME280;54261;46.086;6.588;2023-03-16T13:12:33;92360.41;;;8.12;31.89
67377;BME280;54261;46.086;6.588;2023-03-16T13:17:37;92351.31;;;9.25;31.20
67377;BME280;54261;46.086;6.588;2023-03-16T13:22:41;92335.03;;;6.29;34.89
67377;BME280;54261;46.086;6.588;2023-03-16T13:27:50;92339.53;;;7.03;32.47
67377;BME280;54261;46.086;6.588;2023-03-16T13:32:55;92345.75;;;6.57;34.21
67377;BME280;54261;46.086;6.588;2023-03-16T13:38:04;92346.03;;;6.97;33.16
67377;BME280;54261;46.086;6.588;2023-03-16T13:43:14;92346.94;;;8.17;30.84
67377;BME280;54261;46.086;6.588;2023-03-16T13:48:16;92357.22;;;6.71;32.97
67377;BME280;54261;46.086;6.588;2023-03-16T13:53:29;92351.91;;;6.99;32.41
67377;BME280;54261;46.086;6.588;2023-03-16T13:58:34;92367.97;;;10.07;29.61
67377;BME280;54261;46.086;6.588;2023-03-16T14:03:38;92354.69;;;10.28;27.99
67377;BME280;54261;46.086;6.588;2023-03-16T14:08:47;92350.63;;;7.47;31.41
67377;BME280;54261;46.086;6.588;2023-03-16T14:13:52;92349.31;;;9.92;30.01
67377;BME280;54261;46.086;6.588;2023-03-16T14:19:16;92345.69;;;9.35;30.98
67377;BME280;54261;46.086;6.588;2023-03-16T14:24:28;92352.28;;;6.78;35.37
67377;BME280;54261;46.086;6.588;2023-03-16T14:29:31;92351.66;;;11.34;28.34
67377;BME280;54261;46.086;6.588;2023-03-16T14:34:36;92343.13;;;10.36;27.99
67377;BME280;54261;46.086;6.588;2023-03-16T14:39:40;92345.06;;;8.26;31.10
67377;BME280;54261;46.086;6.588;2023-03-16T14:44:43;92345.88;;;8.99;29.86
67377;BME280;54261;46.086;6.588;2023-03-16T14:49:47;92345.75;;;12.71;25.77
67377;BME280;54261;46.086;6.588;2023-03-16T14:54:49;92345.69;;;11.92;26.14
67377;BME280;54261;46.086;6.588;2023-03-16T14:59:53;92348.06;;;7.79;31.38
67377;BME280;54261;46.086;6.588;2023-03-16T15:04:55;92350.03;;;10.64;28.14
67377;BME280;54261;46.086;6.588;2023-03-16T15:10:11;92359.72;;;12.86;24.86
67377;BME280;54261;46.086;6.588;2023-03-16T15:15:19;92358.63;;;9.69;27.00
67377;BME280;54261;46.086;6.588;2023-03-16T15:20:32;92359.06;;;9.44;28.44
67377;BME280;54261;46.086;6.588;2023-03-16T15:25:37;92349.94;;;8.87;28.88
67377;BME280;54261;46.086;6.588;2023-03-16T15:30:41;92344.34;;;10.65;27.70
67377;BME280;54261;46.086;6.588;2023-03-16T15:35:45;92344.97;;;9.03;28.72
67377;BME280;54261;46.086;6.588;2023-03-16T15:40:49;92328.94;;;9.21;28.52
67377;BME280;54261;46.086;6.588;2023-03-16T15:45:52;92320.63;;;10.11;27.18
67377;BME280;54261;46.086;6.588;2023-03-16T15:51:07;92318.38;;;10.39;26.99
67377;BME280;54261;46.086;6.588;2023-03-16T15:56:16;92315.97;;;10.94;27.96
67377;BME280;54261;46.086;6.588;2023-03-16T16:01:22;92306.97;;;12.26;25.47
67377;BME280;54261;46.086;6.588;2023-03-16T16:06:24;92304.19;;;11.38;25.34
67377;BME280;54261;46.086;6.588;2023-03-16T16:11:28;92292.31;;;8.41;28.87
67377;BME280;54261;46.086;6.588;2023-03-16T16:16:30;92293.97;;;10.62;26.82
67377;BME280;54261;46.086;6.588;2023-03-16T16:21:34;92295.31;;;11.80;24.12
67377;BME280;54261;46.086;6.588;2023-03-16T16:26:41;92294.63;;;9.41;27.63
67377;BME280;54261;46.086;6.588;2023-03-16T16:31:55;92291.00;;;9.81;27.11
67377;BME280;54261;46.086;6.588;2023-03-16T16:36:57;92292.56;;;7.76;29.99
67377;BME280;54261;46.086;6.588;2023-03-16T16:41:59;92301.03;;;7.78;30.20
67377;BME280;54261;46.086;6.588;2023-03-16T16:47:01;92300.47;;;8.76;28.37
67377;BME280;54261;46.086;6.588;2023-03-16T16:52:04;92292.78;;;11.83;26.28
67377;BME280;54261;46.086;6.588;2023-03-16T16:57:14;92298.94;;;14.04;26.42
67377;BME280;54261;46.086;6.588;2023-03-16T17:02:33;92293.56;;;15.29;24.16
67377;BME280;54261;46.086;6.588;2023-03-16T17:07:42;92300.84;;;14.04;24.00
67377;BME280;54261;46.086;6.588;2023-03-16T17:12:44;92282.84;;;12.18;27.41
67377;BME280;54261;46.086;6.588;2023-03-16T17:17:46;92299.19;;;14.27;26.40
67377;BME280;54261;46.086;6.588;2023-03-16T17:22:48;92302.47;;;14.97;25.58
67377;BME280;54261;46.086;6.588;2023-03-16T17:27:53;92296.69;;;15.47;24.32
67377;BME280;54261;46.086;6.588;2023-03-16T17:33:05;92307.00;;;15.97;23.63
67377;BME280;54261;46.086;6.588;2023-03-16T17:38:20;92308.19;;;15.44;23.71
67377;BME280;54261;46.086;6.588;2023-03-16T17:43:22;92289.94;;;14.89;24.40
67377;BME280;54261;46.086;6.588;2023-03-16T17:48:24;92290.72;;;13.06;25.92
67377;BME280;54261;46.086;6.588;2023-03-16T17:53:26;92307.63;;;13.44;26.91
67377;BME280;54261;46.086;6.588;2023-03-16T17:58:29;92308.31;;;11.99;28.05
67377;BME280;54261;46.086;6.588;2023-03-16T18:03:32;92294.94;;;11.69;28.30
67377;BME280;54261;46.086;6.588;2023-03-16T18:08:33;92308.94;;;12.17;26.16
67377;BME280;54261;46.086;6.588;2023-03-16T18:13:38;92302.34;;;11.29;28.04
67377;BME280;54261;46.086;6.588;2023-03-16T18:18:41;92321.28;;;9.37;31.07
67377;BME280;54261;46.086;6.588;2023-03-16T18:23:43;92318.72;;;9.94;31.00
67377;BME280;54261;46.086;6.588;2023-03-16T18:28:45;92308.34;;;9.92;30.10
67377;BME280;54261;46.086;6.588;2023-03-16T18:33:49;92318.81;;;9.00;31.49
67377;BME280;54261;46.086;6.588;2023-03-16T18:38:53;92325.59;;;8.03;34.61
67377;BME280;54261;46.086;6.588;2023-03-16T18:43:57;92328.59;;;8.33;34.44
67377;BME280;54261;46.086;6.588;2023-03-16T18:49:03;92323.97;;;8.16;33.67
67377;BME280;54261;46.086;6.588;2023-03-16T18:59:22;92315.75;;;9.33;33.13
67377;BME280;54261;46.086;6.588;2023-03-16T19:04:28;92321.81;;;7.58;37.14
67377;BME280;54261;46.086;6.588;2023-03-16T19:09:31;92325.66;;;8.75;35.04
67377;BME280;54261;46.086;6.588;2023-03-16T19:14:33;92325.84;;;10.07;33.00
67377;BME280;54261;46.086;6.588;2023-03-16T19:19:35;92313.81;;;9.08;34.41
67377;BME280;54261;46.086;6.588;2023-03-16T19:24:46;92323.31;;;9.40;34.67
67377;BME280;54261;46.086;6.588;2023-03-16T19:29:50;92317.94;;;10.02;33.14
67377;BME280;54261;46.086;6.588;2023-03-16T19:34:53;92329.59;;;8.37;35.75
67377;BME280;54261;46.086;6.588;2023-03-16T19:39:55;92325.41;;;8.54;36.01
67377;BME280;54261;46.086;6.588;2023-03-16T19:44:57;92302.41;;;7.66;36.81
67377;BME280;54261;46.086;6.588;2023-03-16T19:49:59;92317.28;;;6.38;39.64
67377;BME280;54261;46.086;6.588;2023-03-16T19:55:02;92321.81;;;8.58;35.87
67377;BME280;54261;46.086;6.588;2023-03-16T20:00:04;92313.47;;;8.60;35.62
67377;BME280;54261;46.086;6.588;2023-03-16T20:05:14;92259.50;;;8.58;35.34
67377;BME280;54261;46.086;6.588;2023-03-16T20:10:23;92301.53;;;8.66;34.62
67377;BME280;54261;46.086;6.588;2023-03-16T20:15:32;92291.00;;;9.28;34.57
67377;BME280;54261;46.086;6.588;2023-03-16T20:20:34;92304.41;;;9.45;33.78
67377;BME280;54261;46.086;6.588;2023-03-16T20:25:36;92307.53;;;9.21;34.57
67377;BME280;54261;46.086;6.588;2023-03-16T20:30:38;92310.06;;;8.77;34.66
67377;BME280;54261;46.086;6.588;2023-03-16T20:35:40;92304.78;;;7.91;35.30
67377;BME280;54261;46.086;6.588;2023-03-16T20:40:43;92310.25;;;8.89;34.47
67377;BME280;54261;46.086;6.588;2023-03-16T20:45:47;92319.91;;;8.99;34.04
67377;BME280;54261;46.086;6.588;2023-03-16T20:50:49;92300.31;;;8.00;36.28
67377;BME280;54261;46.086;6.588;2023-03-16T20:55:51;92313.44;;;7.74;36.69
67377;BME280;54261;46.086;6.588;2023-03-16T21:00:55;92283.09;;;7.70;36.42
67377;BME280;54261;46.086;6.588;2023-03-16T21:06:05;92306.28;;;7.60;36.65
67377;BME280;54261;46.086;6.588;2023-03-16T21:11:22;92279.53;;;7.01;38.12
67377;BME280;54261;46.086;6.588;2023-03-16T21:16:24;92297.53;;;8.14;35.74
67377;BME280;54261;46.086;6.588;2023-03-16T21:21:27;92296.41;;;8.87;34.81
67377;BME280;54261;46.086;6.588;2023-03-16T21:26:29;92300.81;;;7.88;35.97
67377;BME280;54261;46.086;6.588;2023-03-16T21:31:33;92303.69;;;8.96;34.59
67377;BME280;54261;46.086;6.588;2023-03-16T21:36:35;92300.38;;;8.49;34.63
67377;BME280;54261;46.086;6.588;2023-03-16T21:41:37;92303.09;;;8.58;34.84
67377;BME280;54261;46.086;6.588;2023-03-16T21:46:39;92285.78;;;8.64;33.96
67377;BME280;54261;46.086;6.588;2023-03-16T21:51:41;92310.75;;;8.51;34.77
67377;BME280;54261;46.086;6.588;2023-03-16T21:56:44;92304.84;;;8.31;34.88
67377;BME280;54261;46.086;6.588;2023-03-16T22:01:47;92303.13;;;8.35;35.03
67377;BME280;54261;46.086;6.588;2023-03-16T22:07:09;92297.13;;;8.30;35.42
67377;BME280;54261;46.086;6.588;2023-03-16T22:12:12;92293.53;;;7.57;35.62
67377;BME280;54261;46.086;6.588;2023-03-16T22:17:19;92272.59;;;7.73;35.86
67377;BME280;54261;46.086;6.588;2023-03-16T22:22:22;92283.00;;;8.29;35.29
67377;BME280;54261;46.086;6.588;2023-03-16T22:27:24;92279.66;;;7.92;35.30
67377;BME280;54261;46.086;6.588;2023-03-16T22:32:26;92257.09;;;8.07;35.76
67377;BME280;54261;46.086;6.588;2023-03-16T22:37:28;92273.00;;;8.12;35.15
67377;BME280;54261;46.086;6.588;2023-03-16T22:47:33;92276.50;;;7.30;36.57
67377;BME280;54261;46.086;6.588;2023-03-16T22:52:37;92281.66;;;7.27;36.21
67377;BME280;54261;46.086;6.588;2023-03-16T22:57:39;92274.28;;;7.69;36.80
67377;BME280;54261;46.086;6.588;2023-03-16T23:02:41;92269.75;;;6.96;36.88
67377;BME280;54261;46.086;6.588;2023-03-16T23:07:43;92271.94;;;7.90;36.26
67377;BME280;54261;46.086;6.588;2023-03-16T23:12:48;92259.16;;;7.64;36.79
67377;BME280;54261;46.086;6.588;2023-03-16T23:17:50;92251.66;;;7.89;35.62
67377;BME280;54261;46.086;6.588;2023-03-16T23:22:53;92235.13;;;7.64;36.15
67377;BME280;54261;46.086;6.588;2023-03-16T23:27:56;92248.16;;;7.89;35.24
67377;BME280;54261;46.086;6.588;2023-03-16T23:32:59;92235.09;;;7.87;35.24
67377;BME280;54261;46.086;6.588;2023-03-16T23:38:01;92261.06;;;7.04;36.43
67377;BME280;54261;46.086;6.588;2023-03-16T23:43:03;92265.97;;;7.25;36.10
67377;BME280;54261;46.086;6.588;2023-03-16T23:48:13;92268.66;;;7.71;35.51
67377;BME280;54261;46.086;6.588;2023-03-16T23:53:18;92253.94;;;7.14;36.30
67377;BME280;54261;46.086;6.588;2023-03-16T23:58:20;92270.88;;;7.32;36.22
